Zandhoven, Belgium
Current Conditions -  °F | °C
As of 11:50 PM on Saturday 25 Oct 2014 (Local Time) from EBAW Reporting Station
Overcast Overcast  
Wind Chill: 13°   Ceiling: 4700
Heat Index: 13°   Visibility: 6mi
Dew Point:   Wind: 5mph
Humidity: 72%   Direction: 200°SSW
Pressure: 30.21"   Gusts: NA
Location:  51.21°N, 4.66°E
Report Text: EBAW 252150Z AUTO 20004KT 9999 OVC047/// 13/08 Q1023
Loading
Personal Weather Stations






























Interactive Weather Map
Tropical Storm Tracking
New forecast layout! Learn more

10-Day Weather Forecast

Advertisements
Track Severe Weather on mobile